White Oak, Georgia
Current Conditions -  °F | °C
As of 10:15 AM on Sunday 21 Dec 2014 (Local Time) from KBQK Reporting Station
Overcast Overcast  
Wind Chill: 54°   Ceiling: 400
Heat Index: 54°   Visibility: 10mi
Dew Point: 52°   Wind: 8mph
Humidity: 94%   Direction: 50°NE
Pressure: 30.19"   Gusts: NA
Location:  31.03°N, 81.73°W
Report Text: KBQK 211515Z AUTO 05007KT 10SM OVC004 12/11 A3019 RMK AO1
Loading
Personal Weather Stations






























Interactive Weather Map New forecast layout! Learn more

10-Day Weather Forecast

Advertisements
Track Severe Weather on mobile